createdAt,value
2019-02-18T00:02:38.110Z,100890.39
2019-02-18T00:05:06.725Z,100891.61
2019-02-18T00:07:35.158Z,100886.52
2019-02-18T00:15:52.415Z,100888.01
2019-02-18T00:18:21.181Z,100886.66
2019-02-18T00:20:49.614Z,100891.50
2019-02-18T00:23:18.060Z,100889.61
2019-02-18T00:28:20.734Z,100895.13
2019-02-18T00:33:23.140Z,100893.12
2019-02-18T00:35:51.575Z,100890.80
2019-02-18T00:38:20.032Z,100887.51
2019-02-18T00:40:48.776Z,100882.59
2019-02-18T00:43:17.213Z,100882.61
2019-02-18T00:45:45.952Z,100881.11
2019-02-18T00:48:14.382Z,100877.20
2019-02-18T00:50:43.113Z,100882.88
2019-02-18T00:53:11.643Z,100881.32
2019-02-18T00:58:27.820Z,100881.78
2019-02-18T01:00:57.092Z,100884.25
2019-02-18T01:03:25.529Z,100877.79
2019-02-18T01:08:28.289Z,100887.16
2019-02-18T01:13:31.151Z,100880.23
2019-02-18T01:15:59.622Z,100874.94
2019-02-18T01:18:28.055Z,100877.73
2019-02-18T01:20:56.490Z,100886.03
2019-02-18T01:23:25.321Z,100889.25
2019-02-18T01:25:53.749Z,100886.36
2019-02-18T01:28:22.282Z,100888.30
2019-02-18T01:31:10.178Z,100894.39
2019-02-18T01:33:38.704Z,100890.98
2019-02-18T01:36:07.138Z,100892.05
2019-02-18T01:41:28.461Z,100878.97
2019-02-18T01:43:57.010Z,100883.12
2019-02-18T01:46:25.796Z,100885.78
2019-02-18T01:48:54.324Z,100881.79
2019-02-18T01:51:23.577Z,100888.64
2019-02-18T01:53:52.002Z,100886.58
2019-02-18T01:56:20.462Z,100883.16
2019-02-18T01:58:48.921Z,100878.30
2019-02-18T02:01:17.354Z,100875.19
2019-02-18T02:03:45.795Z,100876.70
2019-02-18T02:06:14.257Z,100870.44
2019-02-18T02:08:42.696Z,100868.67
2019-02-18T02:11:11.125Z,100863.64
2019-02-18T02:13:39.593Z,100864.94
2019-02-18T02:16:47.935Z,100859.77
2019-02-18T02:19:16.399Z,100861.82
2019-02-18T02:21:44.833Z,100864.17
2019-02-18T02:24:13.267Z,100860.30
2019-02-18T02:26:41.730Z,100861.98
2019-02-18T02:29:10.177Z,100860.22
2019-02-18T02:31:38.610Z,100854.27
2019-02-18T02:34:07.168Z,100853.73
2019-02-18T02:36:35.598Z,100853.83
2019-02-18T02:39:23.424Z,100855.59
2019-02-18T02:42:11.013Z,100853.19
2019-02-18T02:44:39.480Z,100860.44
2019-02-18T02:47:07.905Z,100847.72
2019-02-18T02:49:36.359Z,100848.53
2019-02-18T02:52:24.223Z,100844.77
2019-02-18T02:55:11.820Z,100842.00
2019-02-18T02:57:40.287Z,100848.51
2019-02-18T03:00:48.641Z,100842.11
2019-02-18T03:03:17.101Z,100842.27
2019-02-18T03:05:45.890Z,100843.33
2019-02-18T03:08:20.293Z,100846.28
2019-02-18T03:10:44.502Z,100849.83
2019-02-18T03:13:12.942Z,100849.06
2019-02-18T03:15:41.380Z,100847.78
2019-02-18T03:20:44.241Z,100834.67
2019-02-18T03:23:12.706Z,100832.75
2019-02-18T03:26:00.327Z,100835.19
2019-02-18T03:29:07.371Z,100831.52
2019-02-18T03:31:35.809Z,100833.84
2019-02-18T03:34:44.224Z,100839.20
2019-02-18T03:37:12.662Z,100840.58
2019-02-18T03:40:00.632Z,100839.17
2019-02-18T03:42:29.141Z,100840.66
2019-02-18T03:44:57.935Z,100839.72
2019-02-18T03:47:26.441Z,100841.45
2019-02-18T03:49:54.905Z,100840.95
2019-02-18T03:52:23.340Z,100838.84
2019-02-18T03:54:52.191Z,100843.63
2019-02-18T03:57:20.725Z,100836.31
2019-02-18T03:59:49.225Z,100848.29
2019-02-18T04:02:17.688Z,100855.88
2019-02-18T04:04:46.192Z,100857.86
2019-02-18T04:07:14.627Z,100850.77
2019-02-18T04:09:43.091Z,100854.84
2019-02-18T04:12:11.527Z,100855.95
2019-02-18T04:14:39.954Z,100860.28
2019-02-18T04:17:08.415Z,100863.39
2019-02-18T04:19:36.854Z,100858.10
2019-02-18T04:22:05.286Z,100862.65
2019-02-18T04:24:33.852Z,100867.63
2019-02-18T04:27:02.382Z,100867.34
2019-02-18T04:29:30.813Z,100856.19
2019-02-18T04:34:33.746Z,100852.24
2019-02-18T04:37:02.489Z,100849.36
2019-02-18T04:39:50.354Z,100846.81
2019-02-18T04:42:18.786Z,100853.20
2019-02-18T04:44:47.225Z,100853.22
2019-02-18T04:47:15.795Z,100855.92
2019-02-18T04:49:44.557Z,100853.95
2019-02-18T04:52:12.995Z,100857.98
2019-02-18T04:54:41.453Z,100855.65
2019-02-18T04:57:09.891Z,100852.22
2019-02-18T04:59:57.534Z,100851.85
2019-02-18T05:02:25.968Z,100857.22
2019-02-18T05:04:54.406Z,100858.33
2019-02-18T05:07:22.862Z,100857.62
2019-02-18T05:09:51.388Z,100855.65
2019-02-18T05:12:19.825Z,100856.31
2019-02-18T05:14:48.368Z,100856.81
2019-02-18T05:17:16.802Z,100860.45
2019-02-18T05:19:45.235Z,100853.76
2019-02-18T05:22:13.786Z,100850.20
2019-02-18T05:24:42.227Z,100851.73
2019-02-18T05:27:10.666Z,100850.01
2019-02-18T05:29:39.138Z,100850.48
2019-02-18T05:32:07.576Z,100847.19
2019-02-18T05:34:36.009Z,100848.66
2019-02-18T05:37:04.470Z,100855.50
2019-02-18T05:39:33.255Z,100846.88
2019-02-18T05:42:01.699Z,100843.45
2019-02-18T05:44:30.151Z,100839.65
2019-02-18T05:46:58.584Z,100836.95
2019-02-18T05:49:27.364Z,100835.11
2019-02-18T05:51:55.933Z,100841.13
2019-02-18T05:54:24.467Z,100837.31
2019-02-18T05:56:52.901Z,100842.19
2019-02-18T05:59:21.362Z,100843.40
2019-02-18T06:04:57.884Z,100831.69
2019-02-18T06:07:26.310Z,100839.69
2019-02-18T06:09:54.828Z,100836.95
2019-02-18T06:15:18.253Z,100835.88
2019-02-18T06:17:46.685Z,100840.90
2019-02-18T06:20:34.467Z,100843.12
2019-02-18T06:23:02.892Z,100845.11
2019-02-18T06:25:50.552Z,100843.40
2019-02-18T06:28:18.990Z,100847.83
2019-02-18T06:30:47.425Z,100850.11
2019-02-18T06:33:15.888Z,100849.88
2019-02-18T06:35:44.676Z,100849.56
2019-02-18T06:38:32.384Z,100843.66
2019-02-18T06:41:01.216Z,100848.27
2019-02-18T06:43:29.629Z,100850.45
2019-02-18T06:46:17.241Z,100845.38
2019-02-18T06:51:34.777Z,100845.02
2019-02-18T06:54:03.230Z,100853.52
2019-02-18T07:07:33.881Z,100859.13
2019-02-18T07:13:10.877Z,100860.70
2019-02-18T07:15:39.312Z,100873.94
2019-02-18T07:18:07.753Z,100871.99
2019-02-18T07:20:36.222Z,100872.12
2019-02-18T07:23:23.974Z,100865.01
2019-02-18T07:28:26.372Z,100868.27
2019-02-18T07:30:54.911Z,100865.09
2019-02-18T07:33:23.387Z,100868.17
2019-02-18T07:36:11.235Z,100872.46
2019-02-18T07:38:39.698Z,100865.03
2019-02-18T07:41:08.473Z,100868.25
2019-02-18T07:43:36.901Z,100865.94
2019-02-18T07:46:24.637Z,100862.92
2019-02-18T07:48:53.372Z,100872.46
2019-02-18T07:51:21.806Z,100865.43
2019-02-18T07:53:50.265Z,100861.84
2019-02-18T07:56:18.698Z,100860.81
2019-02-18T07:58:47.135Z,100864.69
2019-02-18T08:01:15.594Z,100862.05
2019-02-18T08:06:31.662Z,100853.44
2019-02-18T08:09:00.098Z,100852.38
2019-02-18T08:11:28.618Z,100848.44
2019-02-18T08:13:57.438Z,100840.18
2019-02-18T08:16:25.874Z,100843.32
2019-02-18T08:19:15.661Z,100835.80
2019-02-18T08:21:44.201Z,100848.56
2019-02-18T08:24:13.557Z,100856.22
2019-02-18T08:26:44.080Z,100845.95
2019-02-18T08:29:12.261Z,100849.22
2019-02-18T08:31:41.461Z,100844.20
2019-02-18T08:34:09.920Z,100850.41
2019-02-18T08:36:38.344Z,100837.69
2019-02-18T08:39:46.745Z,100841.00
2019-02-18T08:42:15.157Z,100838.19
2019-02-18T08:44:43.593Z,100835.81
2019-02-18T08:49:46.109Z,100842.11
2019-02-18T08:52:14.901Z,100841.08
2019-02-18T08:54:43.688Z,100843.05
2019-02-18T08:57:12.121Z,100838.02
2019-02-18T08:59:40.576Z,100839.56
2019-02-18T09:02:28.226Z,100831.20
2019-02-18T09:04:57.012Z,100831.22
2019-02-18T09:07:25.442Z,100829.11
2019-02-18T09:09:54.136Z,100826.23
2019-02-18T09:12:22.691Z,100824.88
2019-02-18T09:14:51.124Z,100827.56
2019-02-18T09:17:19.718Z,100827.33
2019-02-18T09:19:48.492Z,100815.05
2019-02-18T09:22:36.039Z,100819.52
2019-02-18T09:25:44.510Z,100815.61
2019-02-18T09:28:13.039Z,100816.14
2019-02-18T09:33:30.854Z,100818.70
2019-02-18T09:35:59.371Z,100811.36
2019-02-18T09:38:28.120Z,100815.45
2019-02-18T09:41:15.771Z,100810.03
2019-02-18T09:43:44.205Z,100812.20
2019-02-18T09:46:12.642Z,100812.27
2019-02-18T09:48:41.113Z,100810.62
2019-02-18T09:51:09.636Z,100808.94
2019-02-18T09:53:38.065Z,100809.92
2019-02-18T09:56:06.607Z,100815.63
2019-02-18T09:58:35.022Z,100812.33
2019-02-18T10:01:22.728Z,100816.94
2019-02-18T10:03:51.156Z,100808.91
2019-02-18T10:06:19.585Z,100803.25
2019-02-18T10:08:48.143Z,100803.45
2019-02-18T10:11:16.589Z,100803.13
2019-02-18T10:13:45.004Z,100794.88
2019-02-18T10:16:32.974Z,100793.17
2019-02-18T10:19:01.428Z,100792.30
2019-02-18T10:21:29.927Z,100780.55
2019-02-18T10:23:58.357Z,100778.38
2019-02-18T10:26:26.871Z,100781.50
2019-02-18T10:28:55.631Z,100783.27
2019-02-18T10:33:58.121Z,100776.22
2019-02-18T10:36:26.885Z,100768.30
2019-02-18T10:38:55.322Z,100761.25
2019-02-18T10:41:43.101Z,100759.03
2019-02-18T10:44:11.534Z,100753.29
2019-02-18T10:46:40.750Z,100747.53
2019-02-18T10:49:19.290Z,100747.91
2019-02-18T10:51:41.141Z,100743.45
2019-02-18T10:54:11.401Z,100740.63
2019-02-18T10:56:39.873Z,100740.17
2019-02-18T10:59:08.293Z,100732.72
2019-02-18T11:01:36.793Z,100732.55
2019-02-18T11:04:05.244Z,100721.00
2019-02-18T11:06:33.674Z,100720.52
2019-02-18T11:11:58.906Z,100706.62
2019-02-18T11:14:27.339Z,100699.23
2019-02-18T11:16:56.037Z,100698.21
2019-02-18T11:19:24.827Z,100690.02
2019-02-18T11:21:53.373Z,100697.15
2019-02-18T11:24:21.812Z,100692.19
2019-02-18T11:26:52.078Z,100683.97
2019-02-18T11:29:20.513Z,100681.74
2019-02-18T11:31:48.947Z,100675.50
2019-02-18T11:34:17.413Z,100675.89
2019-02-18T11:36:46.141Z,100668.39
2019-02-18T11:39:14.641Z,100667.86
2019-02-18T11:41:44.833Z,100665.83
2019-02-18T11:44:13.265Z,100661.69
2019-02-18T11:46:41.719Z,100657.52
2019-02-18T11:49:11.091Z,100649.58
2019-02-18T11:51:39.617Z,100649.64
2019-02-18T11:54:08.067Z,100646.13
2019-02-18T11:59:12.321Z,100640.69
2019-02-18T12:01:41.093Z,100635.49
2019-02-18T12:04:09.548Z,100629.20
2019-02-18T12:06:37.981Z,100627.84
2019-02-18T12:09:46.360Z,100620.98
2019-02-18T12:12:14.793Z,100616.13
2019-02-18T12:14:43.245Z,100621.52
2019-02-18T12:17:20.313Z,100602.61
2019-02-18T12:19:41.857Z,100598.42
2019-02-18T12:22:12.065Z,100594.31
2019-02-18T12:24:40.803Z,100587.88
2019-02-18T12:27:09.226Z,100587.33
2019-02-18T12:29:37.679Z,100579.39
2019-02-18T12:32:25.417Z,100572.02
2019-02-18T12:34:53.844Z,100568.50
2019-02-18T12:37:41.754Z,100576.44
2019-02-18T12:40:50.123Z,100562.39
2019-02-18T12:43:18.664Z,100551.06
2019-02-18T12:45:47.105Z,100552.84
2019-02-18T12:48:17.267Z,100547.41
2019-02-18T12:51:05.503Z,100545.28
2019-02-18T12:53:34.286Z,100537.90
2019-02-18T12:56:03.073Z,100534.66
2019-02-18T13:01:27.817Z,100529.49
2019-02-18T13:04:15.901Z,100525.90
2019-02-18T13:07:03.597Z,100526.00
2019-02-18T13:09:32.112Z,100523.20
2019-02-18T13:12:00.541Z,100519.14
2019-02-18T13:14:29.005Z,100510.44
2019-02-18T13:16:57.499Z,100507.54
2019-02-18T13:19:25.933Z,100504.25
2019-02-18T13:21:54.390Z,100503.00
2019-02-18T13:24:24.542Z,100494.26
2019-02-18T13:26:52.972Z,100489.80
2019-02-18T13:29:40.747Z,100493.28
2019-02-18T13:32:09.181Z,100496.52
2019-02-18T13:34:37.731Z,100484.96
2019-02-18T13:37:06.189Z,100486.60
2019-02-18T13:39:54.027Z,100483.58
2019-02-18T13:45:36.299Z,100466.54
2019-02-18T13:48:04.873Z,100463.91
2019-02-18T13:50:33.312Z,100456.25
2019-02-18T13:53:01.867Z,100452.56
2019-02-18T13:55:30.324Z,100452.44
2019-02-18T13:57:58.849Z,100450.35
2019-02-18T14:00:46.642Z,100448.67
2019-02-18T14:03:22.147Z,100443.88
2019-02-18T14:05:50.856Z,100451.63
2019-02-18T14:08:19.309Z,100448.16
2019-02-18T14:11:06.926Z,100439.97
2019-02-18T14:13:35.397Z,100435.02
2019-02-18T14:16:24.739Z,100435.81
2019-02-18T14:24:42.798Z,100428.27
2019-02-18T14:27:11.223Z,100432.00
2019-02-18T14:29:39.652Z,100429.47
2019-02-18T14:32:09.927Z,100427.13
2019-02-18T14:34:38.359Z,100421.98
2019-02-18T14:37:46.759Z,100425.64
2019-02-18T14:40:55.097Z,100427.50
2019-02-18T14:43:42.996Z,100423.66
2019-02-18T14:46:30.599Z,100418.95
2019-02-18T14:51:33.048Z,100415.95
2019-02-18T14:54:21.108Z,100415.55
2019-02-18T14:57:09.060Z,100413.56
2019-02-18T15:02:53.274Z,100401.13
2019-02-18T15:08:17.591Z,100389.27
2019-02-18T15:10:46.112Z,100384.67
2019-02-18T15:13:14.875Z,100388.22
2019-02-18T15:15:45.052Z,100376.31
2019-02-18T15:18:13.571Z,100372.20
2019-02-18T15:20:42.000Z,100382.19
2019-02-18T15:23:10.471Z,100376.11
2019-02-18T15:25:38.993Z,100378.05
2019-02-18T15:28:07.424Z,100383.73
2019-02-18T15:30:35.884Z,100385.10
2019-02-18T15:33:04.413Z,100385.83
2019-02-18T15:38:20.433Z,100385.66
2019-02-18T15:40:48.933Z,100367.20
2019-02-18T15:43:38.559Z,100369.39
2019-02-18T15:46:46.906Z,100362.88
2019-02-18T15:49:34.668Z,100366.66
2019-02-18T15:55:10.092Z,100363.80
2019-02-18T15:57:38.554Z,100360.09
2019-02-18T16:00:26.971Z,100357.73
2019-02-18T16:02:55.412Z,100362.09
2019-02-18T16:05:43.247Z,100355.13
2019-02-18T16:08:11.675Z,100358.67
2019-02-18T16:10:40.464Z,100359.30
2019-02-18T16:13:10.683Z,100366.50
2019-02-18T16:15:58.445Z,100367.64
2019-02-18T16:18:26.902Z,100360.11
2019-02-18T16:20:55.688Z,100360.70
2019-02-18T16:23:24.120Z,100366.19
2019-02-18T16:26:11.926Z,100363.89
2019-02-18T16:28:40.467Z,100377.36
2019-02-18T16:31:08.964Z,100370.70
2019-02-18T16:33:37.431Z,100374.16
2019-02-18T16:36:05.864Z,100370.50
2019-02-18T16:38:34.316Z,100369.08
2019-02-18T16:41:03.119Z,100365.48
2019-02-18T16:43:32.212Z,100365.55
2019-02-18T16:46:00.999Z,100364.16
2019-02-18T16:48:29.862Z,100365.80
2019-02-18T16:50:58.562Z,100365.69
2019-02-18T16:53:27.061Z,100362.96
2019-02-18T16:55:55.522Z,100371.39
2019-02-18T16:58:24.226Z,100365.19
2019-02-18T17:00:57.649Z,100364.63
2019-02-18T17:03:23.196Z,100366.70
2019-02-18T17:05:52.000Z,100368.75
2019-02-18T17:08:20.430Z,100373.27
2019-02-18T17:10:49.885Z,100371.33
2019-02-18T17:13:19.208Z,100369.27
2019-02-18T17:15:47.652Z,100380.42
2019-02-18T17:18:16.201Z,100377.77
2019-02-18T17:20:44.719Z,100380.09
2019-02-18T17:23:13.512Z,100378.39
2019-02-18T17:25:42.056Z,100377.19
2019-02-18T17:28:10.507Z,100377.80
2019-02-18T17:30:38.927Z,100377.58
2019-02-18T17:33:07.540Z,100376.72
2019-02-18T17:35:36.365Z,100375.66
2019-02-18T17:38:05.227Z,100372.13
2019-02-18T17:40:33.680Z,100373.06
2019-02-18T17:43:02.266Z,100370.94
2019-02-18T17:45:30.696Z,100368.70
2019-02-18T17:47:59.155Z,100372.64
2019-02-18T17:50:27.861Z,100375.39
2019-02-18T17:52:58.118Z,100371.48
2019-02-18T17:55:26.774Z,100376.39
2019-02-18T17:57:55.478Z,100382.00
2019-02-18T18:00:26.285Z,100377.06
2019-02-18T18:02:54.926Z,100379.89
2019-02-18T18:05:24.378Z,100381.73
2019-02-18T18:07:53.143Z,100385.53
2019-02-18T18:10:21.922Z,100386.64
2019-02-18T18:12:50.407Z,100383.01
2019-02-18T18:15:20.265Z,100388.58
2019-02-18T18:17:49.142Z,100386.69
2019-02-18T18:20:17.649Z,100388.91
2019-02-18T18:22:46.087Z,100390.30
2019-02-18T18:25:15.761Z,100389.95
2019-02-18T18:27:44.180Z,100381.42
2019-02-18T18:30:20.111Z,100385.50
2019-02-18T18:32:48.685Z,100390.95
2019-02-18T18:35:17.281Z,100382.47
2019-02-18T18:37:45.713Z,100377.36
2019-02-18T18:40:19.079Z,100377.64
2019-02-18T18:42:47.577Z,100376.11
2019-02-18T18:45:17.815Z,100379.34
2019-02-18T18:47:46.342Z,100388.71
2019-02-18T18:50:20.541Z,100390.95
2019-02-18T18:52:48.973Z,100382.58
2019-02-18T18:55:17.564Z,100388.39
2019-02-18T18:57:46.068Z,100377.13
2019-02-18T19:00:24.238Z,100386.63
2019-02-18T19:02:52.838Z,100382.28
2019-02-18T19:05:21.649Z,100380.88
2019-02-18T19:07:50.109Z,100377.81
2019-02-18T19:10:18.771Z,100387.32
2019-02-18T19:12:47.579Z,100383.22
2019-02-18T19:15:17.286Z,100372.13
2019-02-18T19:17:45.831Z,100385.35
2019-02-18T19:20:14.642Z,100382.80
2019-02-18T19:22:43.199Z,100384.34
2019-02-18T19:25:12.940Z,100387.84
2019-02-18T19:27:41.528Z,100394.86
2019-02-18T19:30:25.105Z,100385.20
2019-02-18T19:32:53.865Z,100396.54
2019-02-18T19:35:22.382Z,100391.88
2019-02-18T19:37:51.244Z,100399.87
2019-02-18T19:40:19.747Z,100396.44
2019-02-18T19:42:48.242Z,100398.14
2019-02-18T19:45:21.605Z,100399.86
2019-02-18T19:47:50.200Z,100398.58
2019-02-18T19:50:19.069Z,100400.77
2019-02-18T19:52:47.524Z,100404.30
2019-02-18T19:55:16.014Z,100404.41
2019-02-18T19:57:44.711Z,100405.75
2019-02-18T20:00:20.327Z,100408.80
2019-02-18T20:02:49.256Z,100408.44
2019-02-18T20:05:17.817Z,100408.43
2019-02-18T20:07:46.291Z,100410.17
2019-02-18T20:10:15.070Z,100416.78
2019-02-18T20:12:43.487Z,100414.60
2019-02-18T20:15:13.785Z,100415.05
2019-02-18T20:17:42.279Z,100414.61
2019-02-18T20:20:15.772Z,100415.48
2019-02-18T20:22:44.683Z,100416.36
2019-02-18T20:25:13.350Z,100411.12
2019-02-18T20:27:42.645Z,100415.94
2019-02-18T20:30:16.342Z,100415.48
2019-02-18T20:32:44.830Z,100418.98
2019-02-18T20:35:13.994Z,100417.63
2019-02-18T20:37:42.443Z,100426.36
2019-02-18T20:40:12.096Z,100429.42
2019-02-18T20:42:40.965Z,100428.51
2019-02-18T20:45:13.359Z,100434.14
2019-02-18T20:47:41.798Z,100438.47
2019-02-18T20:50:14.927Z,100431.02
2019-02-18T20:52:43.456Z,100430.59
2019-02-18T20:55:15.905Z,100428.33
2019-02-18T20:57:44.420Z,100433.52
2019-02-18T21:00:16.794Z,100436.20
2019-02-18T21:02:45.671Z,100430.14
2019-02-18T21:05:14.159Z,100431.45
2019-02-18T21:07:42.706Z,100433.59
2019-02-18T21:10:24.272Z,100429.19
2019-02-18T21:12:53.121Z,100435.20
2019-02-18T21:15:21.628Z,100434.72
2019-02-18T21:17:50.049Z,100426.94
2019-02-18T21:20:18.594Z,100426.95
2019-02-18T21:22:47.394Z,100426.15
2019-02-18T21:25:15.832Z,100429.26
2019-02-18T21:27:44.618Z,100427.09
2019-02-18T21:30:14.975Z,100427.53
2019-02-18T21:32:43.396Z,100422.71
2019-02-18T21:35:12.488Z,100425.34
2019-02-18T21:37:41.347Z,100420.52
2019-02-18T21:40:14.201Z,100426.92
2019-02-18T21:42:43.075Z,100424.67
2019-02-18T21:45:15.427Z,100419.00
2019-02-18T21:47:43.842Z,100416.17
2019-02-18T21:50:12.733Z,100420.56
2019-02-18T21:52:41.429Z,100417.84
2019-02-18T21:55:11.394Z,100417.88
2019-02-18T21:57:40.171Z,100418.45
2019-02-18T22:00:16.484Z,100417.87
2019-02-18T22:02:45.102Z,100428.36
2019-02-18T22:05:14.260Z,100421.55
2019-02-18T22:07:42.679Z,100431.52
2019-02-18T22:10:11.266Z,100428.36
2019-02-18T22:12:39.683Z,100435.76
2019-02-18T22:15:10.857Z,100431.64
2019-02-18T22:17:39.371Z,100441.22
2019-02-18T22:20:10.801Z,100436.95
2019-02-18T22:22:39.224Z,100431.92
2019-02-18T22:25:10.970Z,100434.88
2019-02-18T22:27:40.015Z,100430.52
2019-02-18T22:30:11.517Z,100437.91
2019-02-18T22:32:40.032Z,100439.23
2019-02-18T22:35:09.958Z,100443.63
2019-02-18T22:37:38.530Z,100436.06
2019-02-18T22:40:09.509Z,100432.39
2019-02-18T22:42:38.030Z,100429.28
2019-02-18T22:45:08.414Z,100423.54
2019-02-18T22:47:36.935Z,100421.80
2019-02-18T22:50:06.396Z,100427.71
2019-02-18T22:52:34.995Z,100427.02
2019-02-18T22:55:04.468Z,100429.19
2019-02-18T22:57:33.856Z,100432.67
2019-02-18T23:00:02.286Z,100440.41
2019-02-18T23:02:30.882Z,100435.11
2019-02-18T23:04:59.302Z,100436.42
2019-02-18T23:07:27.723Z,100438.92
2019-02-18T23:09:56.197Z,100444.58
2019-02-18T23:12:25.559Z,100439.66
2019-02-18T23:14:54.184Z,100434.56
2019-02-18T23:17:22.638Z,100434.78
2019-02-18T23:19:51.326Z,100426.40
2019-02-18T23:22:19.815Z,100434.30
2019-02-18T23:24:48.743Z,100442.89
2019-02-18T23:27:17.236Z,100443.23
2019-02-18T23:29:45.654Z,100440.59
2019-02-18T23:32:14.115Z,100439.94
2019-02-18T23:34:42.608Z,100440.66
2019-02-18T23:37:11.419Z,100441.13
2019-02-18T23:39:39.907Z,100437.20
2019-02-18T23:42:08.587Z,100438.64
2019-02-18T23:44:37.369Z,100435.83
2019-02-18T23:47:05.822Z,100442.85
2019-02-18T23:49:34.334Z,100433.63
2019-02-18T23:52:02.852Z,100432.34
2019-02-18T23:54:31.295Z,100431.61
2019-02-18T23:56:59.742Z,100436.52
2019-02-18T23:59:28.163Z,100431.80
